sensor_id;sensor_type;location;lat;lon;timestamp;temperature;humidity
13496;DHT22;6820;49.374;8.452;2022-08-21T00:03:09;22.49;93.76
13496;DHT22;6820;49.374;8.452;2022-08-21T00:07:12;22.48;93.96
13496;DHT22;6820;49.374;8.452;2022-08-21T00:11:14;22.46;94.06
13496;DHT22;6820;49.374;8.452;2022-08-21T00:15:17;22.41;94.15
13496;DHT22;6820;49.374;8.452;2022-08-21T00:19:23;22.36;94.20
13496;DHT22;6820;49.374;8.452;2022-08-21T00:23:26;22.31;94.20
13496;DHT22;6820;49.374;8.452;2022-08-21T00:27:27;22.23;94.50
13496;DHT22;6820;49.374;8.452;2022-08-21T00:31:29;22.12;94.90
13496;DHT22;6820;49.374;8.452;2022-08-21T00:35:32;22.11;95.15
13496;DHT22;6820;49.374;8.452;2022-08-21T00:39:36;22.06;95.34
13496;DHT22;6820;49.374;8.452;2022-08-21T00:43:38;22.02;95.34
13496;DHT22;6820;49.374;8.452;2022-08-21T00:47:40;21.99;95.64
13496;DHT22;6820;49.374;8.452;2022-08-21T00:51:49;21.96;95.99
13496;DHT22;6820;49.374;8.452;2022-08-21T00:55:54;21.90;95.79
13496;DHT22;6820;49.374;8.452;2022-08-21T00:59:58;21.81;96.09
13496;DHT22;6820;49.374;8.452;2022-08-21T01:04:02;21.74;96.29
13496;DHT22;6820;49.374;8.452;2022-08-21T01:08:04;21.68;96.44
13496;DHT22;6820;49.374;8.452;2022-08-21T01:12:07;21.68;96.53
13496;DHT22;6820;49.374;8.452;2022-08-21T01:16:09;21.64;96.53
13496;DHT22;6820;49.374;8.452;2022-08-21T01:20:11;21.59;96.64
13496;DHT22;6820;49.374;8.452;2022-08-21T01:24:14;21.56;96.53
13496;DHT22;6820;49.374;8.452;2022-08-21T01:28:15;21.53;96.64
13496;DHT22;6820;49.374;8.452;2022-08-21T01:32:18;21.51;96.73
13496;DHT22;6820;49.374;8.452;2022-08-21T01:36:21;21.48;96.88
13496;DHT22;6820;49.374;8.452;2022-08-21T01:40:24;21.45;97.08
13496;DHT22;6820;49.374;8.452;2022-08-21T01:44:26;21.42;97.18
13496;DHT22;6820;49.374;8.452;2022-08-21T01:48:28;21.36;97.28
13496;DHT22;6820;49.374;8.452;2022-08-21T01:52:30;21.33;97.68
13496;DHT22;6820;49.374;8.452;2022-08-21T01:56:35;21.27;97.99
13496;DHT22;6820;49.374;8.452;2022-08-21T02:00:39;21.24;98.03
13496;DHT22;6820;49.374;8.452;2022-08-21T02:04:41;21.21;98.33
13496;DHT22;6820;49.374;8.452;2022-08-21T02:08:45;21.13;98.63
13496;DHT22;6820;49.374;8.452;2022-08-21T02:12:47;21.05;99.03
13496;DHT22;6820;49.374;8.452;2022-08-21T02:16:50;20.97;99.23
13496;DHT22;6820;49.374;8.452;2022-08-21T02:21:05;20.82;99.38
13496;DHT22;6820;49.374;8.452;2022-08-21T02:25:07;20.73;99.68
13496;DHT22;6820;49.374;8.452;2022-08-21T02:29:09;20.76;99.52
13496;DHT22;6820;49.374;8.452;2022-08-21T02:33:11;20.75;99.73
13496;DHT22;6820;49.374;8.452;2022-08-21T02:37:14;20.73;99.73
13496;DHT22;6820;49.374;8.452;2022-08-21T02:41:17;20.68;99.93
13496;DHT22;6820;49.374;8.452;2022-08-21T02:45:21;20.64;99.99
13496;DHT22;6820;49.374;8.452;2022-08-21T02:49:23;20.57;99.99
13496;DHT22;6820;49.374;8.452;2022-08-21T02:53:25;20.51;99.99
13496;DHT22;6820;49.374;8.452;2022-08-21T02:57:27;20.38;99.99
13496;DHT22;6820;49.374;8.452;2022-08-21T03:01:29;20.31;99.99
13496;DHT22;6820;49.374;8.452;2022-08-21T03:05:31;20.26;99.99
13496;DHT22;6820;49.374;8.452;2022-08-21T03:09:33;20.20;99.99
13496;DHT22;6820;49.374;8.452;2022-08-21T03:13:35;20.13;99.99
13496;DHT22;6820;49.374;8.452;2022-08-21T03:17:37;20.05;99.99
13496;DHT22;6820;49.374;8.452;2022-08-21T03:21:38;20.02;99.99
13496;DHT22;6820;49.374;8.452;2022-08-21T03:25:40;19.80;99.99
13496;DHT22;6820;49.374;8.452;2022-08-21T03:29:42;19.76;99.99
13496;DHT22;6820;49.374;8.452;2022-08-21T03:33:44;19.78;99.99
13496;DHT22;6820;49.374;8.452;2022-08-21T03:37:46;19.67;99.99
13496;DHT22;6820;49.374;8.452;2022-08-21T03:41:48;19.71;99.99
13496;DHT22;6820;49.374;8.452;2022-08-21T03:45:49;19.75;99.99
13496;DHT22;6820;49.374;8.452;2022-08-21T03:49:52;19.70;99.99
13496;DHT22;6820;49.374;8.452;2022-08-21T03:53:55;19.64;99.99
13496;DHT22;6820;49.374;8.452;2022-08-21T03:57:56;19.61;99.99
13496;DHT22;6820;49.374;8.452;2022-08-21T04:01:59;19.58;99.99
13496;DHT22;6820;49.374;8.452;2022-08-21T04:06:03;19.58;99.99
13496;DHT22;6820;49.374;8.452;2022-08-21T04:10:05;19.55;99.99
13496;DHT22;6820;49.374;8.452;2022-08-21T04:14:08;19.49;99.99
13496;DHT22;6820;49.374;8.452;2022-08-21T04:18:10;19.43;99.99
13496;DHT22;6820;49.374;8.452;2022-08-21T04:22:12;19.38;99.99
13496;DHT22;6820;49.374;8.452;2022-08-21T04:26:13;19.31;99.99
13496;DHT22;6820;49.374;8.452;2022-08-21T04:30:15;19.25;99.99
13496;DHT22;6820;49.374;8.452;2022-08-21T04:34:18;19.24;99.99
13496;DHT22;6820;49.374;8.452;2022-08-21T04:38:20;19.25;99.99
13496;DHT22;6820;49.374;8.452;2022-08-21T04:42:21;19.24;99.99
13496;DHT22;6820;49.374;8.452;2022-08-21T04:46:23;19.28;99.99
13496;DHT22;6820;49.374;8.452;2022-08-21T04:50:29;19.30;99.99
13496;DHT22;6820;49.374;8.452;2022-08-21T04:54:38;19.32;99.99
13496;DHT22;6820;49.374;8.452;2022-08-21T04:58:40;19.30;99.99
13496;DHT22;6820;49.374;8.452;2022-08-21T05:02:43;19.31;99.99
13496;DHT22;6820;49.374;8.452;2022-08-21T05:06:45;19.31;99.99
13496;DHT22;6820;49.374;8.452;2022-08-21T05:10:48;19.35;99.99
13496;DHT22;6820;49.374;8.452;2022-08-21T05:14:50;19.38;99.99
13496;DHT22;6820;49.374;8.452;2022-08-21T05:18:52;19.42;99.99
13496;DHT22;6820;49.374;8.452;2022-08-21T05:22:54;19.46;99.99
13496;DHT22;6820;49.374;8.452;2022-08-21T05:26:56;19.52;99.99
13496;DHT22;6820;49.374;8.452;2022-08-21T05:30:58;19.55;99.99
13496;DHT22;6820;49.374;8.452;2022-08-21T05:35:00;19.58;99.99
13496;DHT22;6820;49.374;8.452;2022-08-21T05:39:02;19.61;99.99
13496;DHT22;6820;49.374;8.452;2022-08-21T05:43:03;19.64;99.99
13496;DHT22;6820;49.374;8.452;2022-08-21T05:47:06;19.65;99.99
13496;DHT22;6820;49.374;8.452;2022-08-21T05:51:10;19.68;99.99
13496;DHT22;6820;49.374;8.452;2022-08-21T05:55:13;19.72;99.99
13496;DHT22;6820;49.374;8.452;2022-08-21T05:59:15;19.78;99.99
13496;DHT22;6820;49.374;8.452;2022-08-21T06:03:20;19.85;99.99
13496;DHT22;6820;49.374;8.452;2022-08-21T06:07:24;19.80;99.99
13496;DHT22;6820;49.374;8.452;2022-08-21T06:11:26;19.87;99.99
13496;DHT22;6820;49.374;8.452;2022-08-21T06:15:29;19.94;99.99
13496;DHT22;6820;49.374;8.452;2022-08-21T06:19:31;19.92;99.99
13496;DHT22;6820;49.374;8.452;2022-08-21T06:23:33;19.98;99.99
13496;DHT22;6820;49.374;8.452;2022-08-21T06:27:35;20.07;99.99
13496;DHT22;6820;49.374;8.452;2022-08-21T06:31:38;20.15;99.99
13496;DHT22;6820;49.374;8.452;2022-08-21T06:35:41;20.15;99.99
13496;DHT22;6820;49.374;8.452;2022-08-21T06:39:42;20.22;99.99
13496;DHT22;6820;49.374;8.452;2022-08-21T06:43:45;20.30;99.99
13496;DHT22;6820;49.374;8.452;2022-08-21T06:47:47;20.35;99.99
13496;DHT22;6820;49.374;8.452;2022-08-21T06:51:49;20.42;99.99
13496;DHT22;6820;49.374;8.452;2022-08-21T06:55:51;20.53;99.99
13496;DHT22;6820;49.374;8.452;2022-08-21T06:59:53;20.60;99.99
13496;DHT22;6820;49.374;8.452;2022-08-21T07:03:55;20.68;99.99
13496;DHT22;6820;49.374;8.452;2022-08-21T07:07:57;20.75;99.02
13496;DHT22;6820;49.374;8.452;2022-08-21T07:11:59;20.81;98.22
13496;DHT22;6820;49.374;8.452;2022-08-21T07:16:01;20.91;98.98
13496;DHT22;6820;49.374;8.452;2022-08-21T07:20:05;20.98;98.78
13496;DHT22;6820;49.374;8.452;2022-08-21T07:24:07;21.01;98.38
13496;DHT22;6820;49.374;8.452;2022-08-21T07:28:09;21.08;97.97
13496;DHT22;6820;49.374;8.452;2022-08-21T07:32:11;21.18;98.43
13496;DHT22;6820;49.374;8.452;2022-08-21T07:36:13;21.33;98.43
13496;DHT22;6820;49.374;8.452;2022-08-21T07:40:15;21.48;97.28
13496;DHT22;6820;49.374;8.452;2022-08-21T07:44:18;21.55;96.18
13496;DHT22;6820;49.374;8.452;2022-08-21T07:48:20;21.64;96.44
13496;DHT22;6820;49.374;8.452;2022-08-21T07:52:23;21.75;96.34
13496;DHT22;6820;49.374;8.452;2022-08-21T07:56:31;21.85;95.59
13496;DHT22;6820;49.374;8.452;2022-08-21T08:00:34;21.99;95.49
13496;DHT22;6820;49.374;8.452;2022-08-21T08:04:35;22.11;95.59
13496;DHT22;6820;49.374;8.452;2022-08-21T08:08:50;22.23;94.84
13496;DHT22;6820;49.374;8.452;2022-08-21T08:12:52;22.30;94.80
13496;DHT22;6820;49.374;8.452;2022-08-21T08:16:56;22.36;94.80
13496;DHT22;6820;49.374;8.452;2022-08-21T08:20:57;22.46;94.40
13496;DHT22;6820;49.374;8.452;2022-08-21T08:24:59;22.60;93.96
13496;DHT22;6820;49.374;8.452;2022-08-21T08:29:01;22.69;94.45
13496;DHT22;6820;49.374;8.452;2022-08-21T08:33:03;22.79;94.01
13496;DHT22;6820;49.374;8.452;2022-08-21T08:37:05;22.86;93.71
13496;DHT22;6820;49.374;8.452;2022-08-21T08:45:15;23.09;92.87
13496;DHT22;6820;49.374;8.452;2022-08-21T08:49:40;23.16;92.57
13496;DHT22;6820;49.374;8.452;2022-08-21T08:54:00;23.21;92.03
13496;DHT22;6820;49.374;8.452;2022-08-21T08:58:05;23.32;92.43
13496;DHT22;6820;49.374;8.452;2022-08-21T09:02:09;23.49;92.52
13496;DHT22;6820;49.374;8.452;2022-08-21T09:06:25;23.57;91.78
13496;DHT22;6820;49.374;8.452;2022-08-21T09:19:14;23.94;91.34
13496;DHT22;6820;49.374;8.452;2022-08-21T09:27:55;24.21;90.60
13496;DHT22;6820;49.374;8.452;2022-08-21T09:31:56;24.29;90.06
13496;DHT22;6820;49.374;8.452;2022-08-21T09:35:58;24.37;89.76
13496;DHT22;6820;49.374;8.452;2022-08-21T09:40:02;24.48;89.72
13496;DHT22;6820;49.374;8.452;2022-08-21T09:44:24;24.70;90.11
13496;DHT22;6820;49.374;8.452;2022-08-21T09:48:28;24.87;89.08
13496;DHT22;6820;49.374;8.452;2022-08-21T09:52:33;25.02;89.63
13496;DHT22;6820;49.374;8.452;2022-08-21T09:56:55;25.14;89.43
13496;DHT22;6820;49.374;8.452;2022-08-21T10:01:48;25.31;88.49
13496;DHT22;6820;49.374;8.452;2022-08-21T10:05:53;25.42;85.97
13496;DHT22;6820;49.374;8.452;2022-08-21T10:10:02;25.53;86.66
13496;DHT22;6820;49.374;8.452;2022-08-21T10:14:12;25.63;85.68
13496;DHT22;6820;49.374;8.452;2022-08-21T10:18:26;25.78;84.94
13496;DHT22;6820;49.374;8.452;2022-08-21T10:22:47;25.91;85.10
13496;DHT22;6820;49.374;8.452;2022-08-21T10:35:29;26.29;82.78
13496;DHT22;6820;49.374;8.452;2022-08-21T10:39:36;26.28;81.74
13496;DHT22;6820;49.374;8.452;2022-08-21T10:47:55;26.54;81.65
13496;DHT22;6820;49.374;8.452;2022-08-21T10:56:16;26.69;81.81
13496;DHT22;6820;49.374;8.452;2022-08-21T11:00:22;26.79;81.70
13496;DHT22;6820;49.374;8.452;2022-08-21T11:04:47;26.91;80.77
13496;DHT22;6820;49.374;8.452;2022-08-21T11:08:55;26.90;80.77
13496;DHT22;6820;49.374;8.452;2022-08-21T11:13:03;26.94;80.38
13496;DHT22;6820;49.374;8.452;2022-08-21T11:17:12;27.05;80.47
13496;DHT22;6820;49.374;8.452;2022-08-21T11:25:42;27.31;79.35
13496;DHT22;6820;49.374;8.452;2022-08-21T11:29:50;27.42;78.92
13496;DHT22;6820;49.374;8.452;2022-08-21T11:34:01;27.52;79.11
13496;DHT22;6820;49.374;8.452;2022-08-21T11:38:41;27.55;78.58
13496;DHT22;6820;49.374;8.452;2022-08-21T11:47:17;27.66;77.69
13496;DHT22;6820;49.374;8.452;2022-08-21T11:56:16;27.90;76.97
13496;DHT22;6820;49.374;8.452;2022-08-21T12:00:24;27.99;76.76
13496;DHT22;6820;49.374;8.452;2022-08-21T12:04:31;28.11;76.63
13496;DHT22;6820;49.374;8.452;2022-08-21T12:08:38;28.23;75.74
13496;DHT22;6820;49.374;8.452;2022-08-21T12:12:43;28.40;75.70
13496;DHT22;6820;49.374;8.452;2022-08-21T12:16:47;28.51;74.52
13496;DHT22;6820;49.374;8.452;2022-08-21T12:20:58;28.64;73.89
13496;DHT22;6820;49.374;8.452;2022-08-21T12:25:06;28.69;73.50
13496;DHT22;6820;49.374;8.452;2022-08-21T12:29:20;28.87;73.56
13496;DHT22;6820;49.374;8.452;2022-08-21T12:33:38;29.03;72.97
13496;DHT22;6820;49.374;8.452;2022-08-21T12:37:46;29.14;72.74
13496;DHT22;6820;49.374;8.452;2022-08-21T12:41:53;29.30;71.55
13496;DHT22;6820;49.374;8.452;2022-08-21T12:46:02;29.49;72.31
13496;DHT22;6820;49.374;8.452;2022-08-21T12:50:08;29.66;71.39
13496;DHT22;6820;49.374;8.452;2022-08-21T12:54:21;29.79;70.56
13496;DHT22;6820;49.374;8.452;2022-08-21T12:58:40;29.91;70.17
13496;DHT22;6820;49.374;8.452;2022-08-21T13:02:47;30.01;70.14
13496;DHT22;6820;49.374;8.452;2022-08-21T13:06:51;30.07;70.04
13496;DHT22;6820;49.374;8.452;2022-08-21T13:10:59;30.25;69.35
13496;DHT22;6820;49.374;8.452;2022-08-21T13:15:21;30.38;69.12
13496;DHT22;6820;49.374;8.452;2022-08-21T13:19:33;30.57;68.82
13496;DHT22;6820;49.374;8.452;2022-08-21T13:23:35;30.64;68.30
13496;DHT22;6820;49.374;8.452;2022-08-21T13:27:37;30.78;68.07
13496;DHT22;6820;49.374;8.452;2022-08-21T13:31:39;31.03;68.07
13496;DHT22;6820;49.374;8.452;2022-08-21T13:35:48;31.13;67.84
13496;DHT22;6820;49.374;8.452;2022-08-21T13:40:06;31.22;67.41
13496;DHT22;6820;49.374;8.452;2022-08-21T13:44:24;31.34;66.53
13496;DHT22;6820;49.374;8.452;2022-08-21T13:48:35;31.37;66.53
13496;DHT22;6820;49.374;8.452;2022-08-21T13:52:44;31.41;66.30
13496;DHT22;6820;49.374;8.452;2022-08-21T13:56:49;31.20;66.60
13496;DHT22;6820;49.374;8.452;2022-08-21T14:00:51;31.40;66.63
13496;DHT22;6820;49.374;8.452;2022-08-21T14:04:55;31.49;66.01
13496;DHT22;6820;49.374;8.452;2022-08-21T14:09:01;31.64;65.91
13496;DHT22;6820;49.374;8.452;2022-08-21T14:13:28;31.76;65.68
13496;DHT22;6820;49.374;8.452;2022-08-21T14:17:38;31.85;65.48
13496;DHT22;6820;49.374;8.452;2022-08-21T14:21:43;31.91;64.70
13496;DHT22;6820;49.374;8.452;2022-08-21T14:25:45;32.13;65.16
13496;DHT22;6820;49.374;8.452;2022-08-21T14:29:47;32.29;64.73
13496;DHT22;6820;49.374;8.452;2022-08-21T14:33:49;32.39;64.54
13496;DHT22;6820;49.374;8.452;2022-08-21T14:37:51;32.50;64.61
13496;DHT22;6820;49.374;8.452;2022-08-21T14:41:55;32.59;64.70
13496;DHT22;6820;49.374;8.452;2022-08-21T14:45:58;32.59;63.73
13496;DHT22;6820;49.374;8.452;2022-08-21T14:50:02;32.49;63.73
13496;DHT22;6820;49.374;8.452;2022-08-21T14:54:04;32.34;63.63
13496;DHT22;6820;49.374;8.452;2022-08-21T14:58:07;32.31;63.95
13496;DHT22;6820;49.374;8.452;2022-08-21T15:02:08;32.35;64.44
13496;DHT22;6820;49.374;8.452;2022-08-21T15:06:10;32.43;63.82
13496;DHT22;6820;49.374;8.452;2022-08-21T15:10:12;32.40;63.73
13496;DHT22;6820;49.374;8.452;2022-08-21T15:14:17;32.35;64.02
13496;DHT22;6820;49.374;8.452;2022-08-21T15:18:25;32.36;63.92
13496;DHT22;6820;49.374;8.452;2022-08-21T15:22:28;32.51;64.12
13496;DHT22;6820;49.374;8.452;2022-08-21T15:26:29;32.58;63.63
13496;DHT22;6820;49.374;8.452;2022-08-21T15:30:31;32.62;63.53
13496;DHT22;6820;49.374;8.452;2022-08-21T15:34:33;32.53;63.11
13496;DHT22;6820;49.374;8.452;2022-08-21T15:38:35;32.47;63.53
13496;DHT22;6820;49.374;8.452;2022-08-21T15:42:37;32.51;63.34
13496;DHT22;6820;49.374;8.452;2022-08-21T15:46:41;32.53;63.43
13496;DHT22;6820;49.374;8.452;2022-08-21T15:50:43;32.53;63.24
13496;DHT22;6820;49.374;8.452;2022-08-21T15:54:45;32.41;63.14
13496;DHT22;6820;49.374;8.452;2022-08-21T15:58:46;32.47;63.14
13496;DHT22;6820;49.374;8.452;2022-08-21T16:02:53;32.44;63.53
13496;DHT22;6820;49.374;8.452;2022-08-21T16:06:56;32.47;63.63
13496;DHT22;6820;49.374;8.452;2022-08-21T16:11:07;32.49;63.63
13496;DHT22;6820;49.374;8.452;2022-08-21T16:15:10;32.39;63.43
13496;DHT22;6820;49.374;8.452;2022-08-21T16:19:20;32.22;63.82
13496;DHT22;6820;49.374;8.452;2022-08-21T16:23:22;32.14;63.76
13496;DHT22;6820;49.374;8.452;2022-08-21T16:27:23;32.17;64.25
13496;DHT22;6820;49.374;8.452;2022-08-21T16:31:27;32.12;64.05
13496;DHT22;6820;49.374;8.452;2022-08-21T16:35:29;31.90;64.34
13496;DHT22;6820;49.374;8.452;2022-08-21T16:39:31;31.56;64.67
13496;DHT22;6820;49.374;8.452;2022-08-21T16:43:33;31.25;65.72
13496;DHT22;6820;49.374;8.452;2022-08-21T16:47:35;30.86;65.94
13496;DHT22;6820;49.374;8.452;2022-08-21T16:51:37;30.54;66.40
13496;DHT22;6820;49.374;8.452;2022-08-21T16:55:38;30.21;66.33
13496;DHT22;6820;49.374;8.452;2022-08-21T16:59:41;30.04;67.15
13496;DHT22;6820;49.374;8.452;2022-08-21T17:03:46;29.99;67.77
13496;DHT22;6820;49.374;8.452;2022-08-21T17:07:51;29.91;68.27
13496;DHT22;6820;49.374;8.452;2022-08-21T17:11:53;29.76;69.25
13496;DHT22;6820;49.374;8.452;2022-08-21T17:15:54;29.63;70.47
13496;DHT22;6820;49.374;8.452;2022-08-21T17:19:56;29.60;70.70
13496;DHT22;6820;49.374;8.452;2022-08-21T17:23:57;29.51;70.01
13496;DHT22;6820;49.374;8.452;2022-08-21T17:27:59;29.35;69.81
13496;DHT22;6820;49.374;8.452;2022-08-21T17:32:02;29.18;70.34
13496;DHT22;6820;49.374;8.452;2022-08-21T17:36:05;29.03;71.42
13496;DHT22;6820;49.374;8.452;2022-08-21T17:40:09;28.91;71.95
13496;DHT22;6820;49.374;8.452;2022-08-21T17:44:14;28.79;73.07
13496;DHT22;6820;49.374;8.452;2022-08-21T17:48:19;28.65;73.96
13496;DHT22;6820;49.374;8.452;2022-08-21T17:52:25;28.51;75.18
13496;DHT22;6820;49.374;8.452;2022-08-21T17:56:28;28.35;75.87
13496;DHT22;6820;49.374;8.452;2022-08-21T18:00:32;28.24;75.81
13496;DHT22;6820;49.374;8.452;2022-08-21T18:04:34;28.09;76.00
13496;DHT22;6820;49.374;8.452;2022-08-21T18:08:36;27.98;77.91
13496;DHT22;6820;49.374;8.452;2022-08-21T18:12:38;27.84;79.99
13496;DHT22;6820;49.374;8.452;2022-08-21T18:16:41;27.68;81.41
13496;DHT22;6820;49.374;8.452;2022-08-21T18:20:43;27.52;83.23
13496;DHT22;6820;49.374;8.452;2022-08-21T18:24:44;27.34;83.03
13496;DHT22;6820;49.374;8.452;2022-08-21T18:28:46;27.21;82.08
13496;DHT22;6820;49.374;8.452;2022-08-21T18:32:48;27.13;81.52
13496;DHT22;6820;49.374;8.452;2022-08-21T18:36:52;27.08;81.03
13496;DHT22;6820;49.374;8.452;2022-08-21T18:40:55;27.05;81.03
13496;DHT22;6820;49.374;8.452;2022-08-21T18:44:58;27.02;81.13
13496;DHT22;6820;49.374;8.452;2022-08-21T18:49:02;26.97;80.93
13496;DHT22;6820;49.374;8.452;2022-08-21T18:53:04;26.93;80.77
13496;DHT22;6820;49.374;8.452;2022-08-21T18:57:27;26.87;80.68
13496;DHT22;6820;49.374;8.452;2022-08-21T19:01:31;26.79;80.58
13496;DHT22;6820;49.374;8.452;2022-08-21T19:05:33;26.72;80.68
13496;DHT22;6820;49.374;8.452;2022-08-21T19:09:36;26.65;81.11
13496;DHT22;6820;49.374;8.452;2022-08-21T19:13:38;26.54;82.79
13496;DHT22;6820;49.374;8.452;2022-08-21T19:17:40;26.46;83.98
13496;DHT22;6820;49.374;8.452;2022-08-21T19:21:43;26.28;85.91
13496;DHT22;6820;49.374;8.452;2022-08-21T19:25:45;26.13;86.40
13496;DHT22;6820;49.374;8.452;2022-08-21T19:29:52;26.08;86.74
13496;DHT22;6820;49.374;8.452;2022-08-21T19:33:54;25.98;87.93
13496;DHT22;6820;49.374;8.452;2022-08-21T19:38:02;25.96;89.26
13496;DHT22;6820;49.374;8.452;2022-08-21T19:42:05;25.93;89.16
13496;DHT22;6820;49.374;8.452;2022-08-21T19:46:10;25.89;89.66
13496;DHT22;6820;49.374;8.452;2022-08-21T19:50:17;25.82;89.76
13496;DHT22;6820;49.374;8.452;2022-08-21T19:54:23;25.79;89.76
13496;DHT22;6820;49.374;8.452;2022-08-21T19:58:34;25.67;90.55
13496;DHT22;6820;49.374;8.452;2022-08-21T20:02:39;25.56;90.59
13496;DHT22;6820;49.374;8.452;2022-08-21T20:06:59;25.51;91.58
13496;DHT22;6820;49.374;8.452;2022-08-21T20:11:01;25.36;92.43
13496;DHT22;6820;49.374;8.452;2022-08-21T20:15:23;25.29;91.83
13496;DHT22;6820;49.374;8.452;2022-08-21T20:19:25;25.23;91.87
13496;DHT22;6820;49.374;8.452;2022-08-21T20:23:31;25.19;92.47
13496;DHT22;6820;49.374;8.452;2022-08-21T20:27:34;25.17;92.77
13496;DHT22;6820;49.374;8.452;2022-08-21T20:31:40;25.08;93.76
13496;DHT22;6820;49.374;8.452;2022-08-21T20:35:43;25.05;93.37
13496;DHT22;6820;49.374;8.452;2022-08-21T20:39:48;25.04;93.71
13496;DHT22;6820;49.374;8.452;2022-08-21T20:43:50;24.93;94.20
13496;DHT22;6820;49.374;8.452;2022-08-21T20:48:04;24.84;95.99
13496;DHT22;6820;49.374;8.452;2022-08-21T20:52:11;24.79;95.10
13496;DHT22;6820;49.374;8.452;2022-08-21T21:00:58;24.70;93.85
13496;DHT22;6820;49.374;8.452;2022-08-21T21:09:35;24.60;93.26
13496;DHT22;6820;49.374;8.452;2022-08-21T21:13:46;24.44;91.66
13496;DHT22;6820;49.374;8.452;2022-08-21T21:17:51;24.30;91.01
13496;DHT22;6820;49.374;8.452;2022-08-21T21:30:49;24.04;91.99
13496;DHT22;6820;49.374;8.452;2022-08-21T21:34:58;24.04;91.99
13496;DHT22;6820;49.374;8.452;2022-08-21T21:39:16;24.00;91.99
13496;DHT22;6820;49.374;8.452;2022-08-21T21:43:54;23.94;91.99
13496;DHT22;6820;49.374;8.452;2022-08-21T21:52:32;23.93;91.99
13496;DHT22;6820;49.374;8.452;2022-08-21T22:05:58;23.71;92.24
13496;DHT22;6820;49.374;8.452;2022-08-21T22:14:43;23.72;92.14
13496;DHT22;6820;49.374;8.452;2022-08-21T22:18:49;23.68;92.63
13496;DHT22;6820;49.374;8.452;2022-08-21T22:22:55;23.63;92.83
13496;DHT22;6820;49.374;8.452;2022-08-21T22:27:01;23.60;92.63
13496;DHT22;6820;49.374;8.452;2022-08-21T22:31:15;23.60;92.48
13496;DHT22;6820;49.374;8.452;2022-08-21T22:35:25;23.53;92.68
13496;DHT22;6820;49.374;8.452;2022-08-21T22:39:34;23.53;92.88
13496;DHT22;6820;49.374;8.452;2022-08-21T22:43:50;23.52;92.58
13496;DHT22;6820;49.374;8.452;2022-08-21T22:48:06;23.39;93.08
13496;DHT22;6820;49.374;8.452;2022-08-21T22:52:44;23.37;92.98
13496;DHT22;6820;49.374;8.452;2022-08-21T22:56:59;23.23;92.63
13496;DHT22;6820;49.374;8.452;2022-08-21T23:05:30;23.04;93.02
13496;DHT22;6820;49.374;8.452;2022-08-21T23:09:44;22.97;93.17
13496;DHT22;6820;49.374;8.452;2022-08-21T23:13:50;22.84;93.47
13496;DHT22;6820;49.374;8.452;2022-08-21T23:17:56;22.85;93.51
13496;DHT22;6820;49.374;8.452;2022-08-21T23:22:21;22.85;93.41
13496;DHT22;6820;49.374;8.452;2022-08-21T23:26:35;22.89;93.41
13496;DHT22;6820;49.374;8.452;2022-08-21T23:39:59;22.93;93.12
13496;DHT22;6820;49.374;8.452;2022-08-21T23:49:20;22.85;92.51
13496;DHT22;6820;49.374;8.452;2022-08-21T23:53:53;22.91;91.72
